createdAt,value
2019-01-30T00:00:51.312Z,307.38
2019-01-30T00:01:51.297Z,307.52
2019-01-30T00:02:51.301Z,306.93
2019-01-30T00:03:51.313Z,307.56
2019-01-30T00:04:51.270Z,307.61
2019-01-30T00:05:51.266Z,307.44
2019-01-30T00:06:51.254Z,307.63
2019-01-30T00:07:51.258Z,307.94
2019-01-30T00:08:51.236Z,308.46
2019-01-30T00:09:51.216Z,308.07
2019-01-30T00:10:51.220Z,308.09
2019-01-30T00:11:51.201Z,307.37
2019-01-30T00:12:51.191Z,308.21
2019-01-30T00:13:51.195Z,307.68
2019-01-30T00:14:51.172Z,307.43
2019-01-30T00:15:56.505Z,308.28
2019-01-30T00:16:52.143Z,307.82
2019-01-30T00:17:51.129Z,307.29
2019-01-30T00:18:51.134Z,306.72
2019-01-30T00:19:51.113Z,306.69
2019-01-30T00:20:51.102Z,306.84
2019-01-30T00:21:51.103Z,307.36
2019-01-30T00:22:51.084Z,307.57
2019-01-30T00:23:51.083Z,307.74
2019-01-30T00:24:51.058Z,306.98
2019-01-30T00:25:51.052Z,307.85
2019-01-30T00:26:51.056Z,306.88
2019-01-30T00:27:51.044Z,307.13
2019-01-30T00:28:51.050Z,306.53
2019-01-30T00:29:51.008Z,306.75
2019-01-30T00:30:50.999Z,307.31
2019-01-30T00:31:50.987Z,306.54
2019-01-30T00:32:51.021Z,307.16
2019-01-30T00:33:50.987Z,307.39
2019-01-30T00:34:50.958Z,306.95
2019-01-30T00:35:50.956Z,307.05
2019-01-30T00:36:50.937Z,306.93
2019-01-30T00:37:50.932Z,306.40
2019-01-30T00:38:50.931Z,307.26
2019-01-30T00:39:50.909Z,306.99
2019-01-30T00:40:50.900Z,307.01
2019-01-30T00:41:50.889Z,307.28
2019-01-30T00:42:50.884Z,307.15
2019-01-30T00:43:50.890Z,307.16
2019-01-30T00:44:50.851Z,307.36
2019-01-30T00:45:50.852Z,307.24
2019-01-30T00:46:50.835Z,306.77
2019-01-30T00:47:50.865Z,307.35
2019-01-30T00:48:50.835Z,306.69
2019-01-30T00:49:50.805Z,306.43
2019-01-30T00:50:58.841Z,306.77
2019-01-30T00:51:50.791Z,306.30
2019-01-30T00:52:50.775Z,306.37
2019-01-30T00:53:50.771Z,306.83
2019-01-30T00:54:50.768Z,306.45
2019-01-30T00:55:50.750Z,305.90
2019-01-30T00:56:50.727Z,306.39
2019-01-30T00:57:50.720Z,306.61
2019-01-30T00:58:50.728Z,306.57
2019-01-30T00:59:50.704Z,306.50
2019-01-30T01:00:50.690Z,306.84
2019-01-30T01:01:50.685Z,306.53
2019-01-30T01:02:50.673Z,306.88
2019-01-30T01:03:50.697Z,306.75
2019-01-30T01:04:50.648Z,306.72
2019-01-30T01:05:50.644Z,306.40
2019-01-30T01:06:50.635Z,306.31
2019-01-30T01:07:50.625Z,306.56
2019-01-30T01:08:50.619Z,306.34
2019-01-30T01:09:50.601Z,306.43
2019-01-30T01:10:50.595Z,306.38
2019-01-30T01:11:50.586Z,305.92
2019-01-30T01:12:50.575Z,305.86
2019-01-30T01:13:50.574Z,305.86
2019-01-30T01:14:50.553Z,306.16
2019-01-30T01:15:50.539Z,305.98
2019-01-30T01:16:50.532Z,305.82
2019-01-30T01:17:50.535Z,306.01
2019-01-30T01:18:50.552Z,305.62
2019-01-30T01:19:50.502Z,305.40
2019-01-30T01:20:50.492Z,305.74
2019-01-30T01:21:50.477Z,304.97
2019-01-30T01:22:50.477Z,305.01
2019-01-30T01:23:50.472Z,305.23
2019-01-30T01:24:50.452Z,304.83
2019-01-30T01:25:50.439Z,304.99
2019-01-30T01:26:50.423Z,304.73
2019-01-30T01:27:50.424Z,304.61
2019-01-30T01:28:50.419Z,305.20
2019-01-30T01:29:50.407Z,305.12
2019-01-30T01:30:50.376Z,304.85
2019-01-30T01:31:50.381Z,305.22
2019-01-30T01:32:50.359Z,305.31
2019-01-30T01:33:50.369Z,305.22
2019-01-30T01:34:50.338Z,304.84
2019-01-30T01:35:50.332Z,304.97
2019-01-30T01:36:50.322Z,304.80
2019-01-30T01:37:50.325Z,305.24
2019-01-30T01:38:50.315Z,305.52
2019-01-30T01:39:50.986Z,305.38
2019-01-30T01:40:50.281Z,306.56
2019-01-30T01:41:50.268Z,305.65
2019-01-30T01:42:50.293Z,305.89
2019-01-30T01:43:50.285Z,306.09
2019-01-30T01:44:50.241Z,305.48
2019-01-30T01:45:50.235Z,305.76
2019-01-30T01:46:50.225Z,305.39
2019-01-30T01:47:50.205Z,305.03
2019-01-30T01:48:50.222Z,305.85
2019-01-30T01:49:50.185Z,305.46
2019-01-30T01:50:50.175Z,305.46
2019-01-30T01:51:50.175Z,305.48
2019-01-30T01:52:50.165Z,305.84
2019-01-30T01:53:50.201Z,305.72
2019-01-30T01:54:50.140Z,305.81
2019-01-30T01:55:50.131Z,305.53
2019-01-30T01:56:50.120Z,305.42
2019-01-30T01:57:50.104Z,305.49
2019-01-30T01:58:50.119Z,305.29
2019-01-30T01:59:50.100Z,305.60
2019-01-30T02:00:50.075Z,305.45
2019-01-30T02:01:50.101Z,306.01
2019-01-30T02:02:50.045Z,305.15
2019-01-30T02:03:50.068Z,305.82
2019-01-30T02:04:50.049Z,305.85
2019-01-30T02:05:50.025Z,305.46
2019-01-30T02:06:50.017Z,304.77
2019-01-30T02:07:50.000Z,305.09
2019-01-30T02:08:50.018Z,305.00
2019-01-30T02:09:50.053Z,304.58
2019-01-30T02:10:49.967Z,304.79
2019-01-30T02:11:49.965Z,305.00
2019-01-30T02:12:49.948Z,305.04
2019-01-30T02:13:49.940Z,304.63
2019-01-30T02:14:49.941Z,304.88
2019-01-30T02:15:49.936Z,304.69
2019-01-30T02:16:49.904Z,305.28
2019-01-30T02:17:49.941Z,304.62
2019-01-30T02:18:49.878Z,304.82
2019-01-30T02:19:49.892Z,304.80
2019-01-30T02:20:49.876Z,304.55
2019-01-30T02:21:49.861Z,304.45
2019-01-30T02:22:49.856Z,304.83
2019-01-30T02:23:49.855Z,304.78
2019-01-30T02:24:49.846Z,305.08
2019-01-30T02:25:49.826Z,304.46
2019-01-30T02:26:49.807Z,305.00
2019-01-30T02:27:56.843Z,304.50
2019-01-30T02:28:56.879Z,304.24
2019-01-30T02:29:56.821Z,304.60
2019-01-30T02:30:57.324Z,305.00
2019-01-30T02:31:57.795Z,304.86
2019-01-30T02:32:49.750Z,304.67
2019-01-30T02:33:49.731Z,304.63
2019-01-30T02:34:49.735Z,304.44
2019-01-30T02:35:49.714Z,304.94
2019-01-30T02:36:49.700Z,304.55
2019-01-30T02:37:49.705Z,304.60
2019-01-30T02:38:49.691Z,304.15
2019-01-30T02:39:49.697Z,304.27
2019-01-30T02:40:49.663Z,304.29
2019-01-30T02:41:49.657Z,304.20
2019-01-30T02:42:49.634Z,304.06
2019-01-30T02:43:49.627Z,304.52
2019-01-30T02:44:49.638Z,304.22
2019-01-30T02:45:49.626Z,304.68
2019-01-30T02:46:49.607Z,304.63
2019-01-30T02:47:49.582Z,304.37
2019-01-30T02:48:49.586Z,304.83
2019-01-30T02:49:49.580Z,304.71
2019-01-30T02:50:49.558Z,304.97
2019-01-30T02:51:49.564Z,304.79
2019-01-30T02:52:49.531Z,305.21
2019-01-30T02:53:49.534Z,305.09
2019-01-30T02:54:49.540Z,305.66
2019-01-30T02:55:49.509Z,305.40
2019-01-30T02:56:49.492Z,305.52
2019-01-30T02:57:49.492Z,305.73
2019-01-30T02:58:49.505Z,305.60
2019-01-30T02:59:49.500Z,305.83
2019-01-30T03:00:58.957Z,306.08
2019-01-30T03:01:50.449Z,305.80
2019-01-30T03:02:49.439Z,305.38
2019-01-30T03:03:49.437Z,305.57
2019-01-30T03:04:49.449Z,305.48
2019-01-30T03:05:49.397Z,304.86
2019-01-30T03:06:49.397Z,305.46
2019-01-30T03:07:49.397Z,305.38
2019-01-30T03:08:49.370Z,305.27
2019-01-30T03:09:49.379Z,304.63
2019-01-30T03:10:49.351Z,304.68
2019-01-30T03:11:49.344Z,304.64
2019-01-30T03:12:49.349Z,304.87
2019-01-30T03:13:49.319Z,304.52
2019-01-30T03:14:49.325Z,304.70
2019-01-30T03:15:49.305Z,304.10
2019-01-30T03:16:49.290Z,305.18
2019-01-30T03:17:49.276Z,304.82
2019-01-30T03:18:49.274Z,304.43
2019-01-30T03:19:49.277Z,304.66
2019-01-30T03:20:49.243Z,304.89
2019-01-30T03:21:49.230Z,304.72
2019-01-30T03:22:49.228Z,304.58
2019-01-30T03:23:49.234Z,304.93
2019-01-30T03:24:49.240Z,304.09
2019-01-30T03:25:49.204Z,304.69
2019-01-30T03:26:49.187Z,304.56
2019-01-30T03:27:49.184Z,304.98
2019-01-30T03:28:49.170Z,304.59
2019-01-30T03:29:49.167Z,304.41
2019-01-30T03:30:49.157Z,304.91
2019-01-30T03:31:49.186Z,304.96
2019-01-30T03:32:49.146Z,304.74
2019-01-30T03:33:49.114Z,304.61
2019-01-30T03:34:49.123Z,305.07
2019-01-30T03:35:49.087Z,304.84
2019-01-30T03:36:49.079Z,304.42
2019-01-30T03:37:49.087Z,305.01
2019-01-30T03:38:49.065Z,305.18
2019-01-30T03:39:49.072Z,305.36
2019-01-30T03:40:49.048Z,304.62
2019-01-30T03:41:49.030Z,305.20
2019-01-30T03:42:49.015Z,305.02
2019-01-30T03:43:49.018Z,304.87
2019-01-30T03:44:49.029Z,305.21
2019-01-30T03:45:48.999Z,304.94
2019-01-30T03:46:48.983Z,305.24
2019-01-30T03:47:48.969Z,304.67
2019-01-30T03:48:48.950Z,305.19
2019-01-30T03:49:48.959Z,304.78
2019-01-30T03:50:49.865Z,305.10
2019-01-30T03:51:48.930Z,305.04
2019-01-30T03:52:48.934Z,305.06
2019-01-30T03:53:48.908Z,304.71
2019-01-30T03:54:49.021Z,304.79
2019-01-30T03:55:48.900Z,304.81
2019-01-30T03:56:48.966Z,304.69
2019-01-30T03:57:48.942Z,304.95
2019-01-30T03:58:48.876Z,305.34
2019-01-30T03:59:48.882Z,304.58
2019-01-30T04:00:48.848Z,305.12
2019-01-30T04:01:48.852Z,305.46
2019-01-30T04:02:48.835Z,305.23
2019-01-30T04:03:48.823Z,305.01
2019-01-30T04:04:48.819Z,305.57
2019-01-30T04:05:48.797Z,305.05
2019-01-30T04:06:48.786Z,305.15
2019-01-30T04:07:48.776Z,305.15
2019-01-30T04:08:48.765Z,305.40
2019-01-30T04:09:48.815Z,305.10
2019-01-30T04:10:48.750Z,305.62
2019-01-30T04:11:48.724Z,305.18
2019-01-30T04:12:48.723Z,305.00
2019-01-30T04:13:48.704Z,305.23
2019-01-30T04:14:48.740Z,305.59
2019-01-30T04:15:48.680Z,305.27
2019-01-30T04:16:48.673Z,305.09
2019-01-30T04:17:48.658Z,305.18
2019-01-30T04:18:48.657Z,305.37
2019-01-30T04:19:48.649Z,305.63
2019-01-30T04:20:48.671Z,305.50
2019-01-30T04:21:48.627Z,305.80
2019-01-30T04:22:48.625Z,305.46
2019-01-30T04:23:48.602Z,305.32
2019-01-30T04:24:48.602Z,305.67
2019-01-30T04:25:48.605Z,305.58
2019-01-30T04:26:48.578Z,305.16
2019-01-30T04:27:48.556Z,305.18
2019-01-30T04:28:48.543Z,305.38
2019-01-30T04:29:48.541Z,305.84
2019-01-30T04:30:48.548Z,306.06
2019-01-30T04:31:48.525Z,305.88
2019-01-30T04:32:48.513Z,306.14
2019-01-30T04:33:48.489Z,306.15
2019-01-30T04:34:48.485Z,305.33
2019-01-30T04:35:48.479Z,306.00
2019-01-30T04:36:48.468Z,306.16
2019-01-30T04:37:48.457Z,305.71
2019-01-30T04:38:48.459Z,305.75
2019-01-30T04:39:48.429Z,305.64
2019-01-30T04:40:48.438Z,305.82
2019-01-30T04:41:48.405Z,305.85
2019-01-30T04:42:48.439Z,305.96
2019-01-30T04:43:56.378Z,306.38
2019-01-30T04:44:48.386Z,306.00
2019-01-30T04:45:48.393Z,305.62
2019-01-30T04:46:48.351Z,305.23
2019-01-30T04:47:55.401Z,305.45
2019-01-30T04:48:48.339Z,306.32
2019-01-30T04:49:48.327Z,305.77
2019-01-30T04:50:48.340Z,305.62
2019-01-30T04:51:48.315Z,305.61
2019-01-30T04:52:48.295Z,305.85
2019-01-30T04:53:48.291Z,306.47
2019-01-30T04:54:56.335Z,305.70
2019-01-30T04:55:48.286Z,306.32
2019-01-30T04:56:48.261Z,306.80
2019-01-30T04:57:48.266Z,306.53
2019-01-30T04:58:48.237Z,306.12
2019-01-30T04:59:48.241Z,305.90
2019-01-30T05:00:48.229Z,306.49
2019-01-30T05:01:49.620Z,306.25
2019-01-30T05:02:48.280Z,306.35
2019-01-30T05:03:48.194Z,306.26
2019-01-30T05:04:48.174Z,306.12
2019-01-30T05:05:48.203Z,306.34
2019-01-30T05:06:48.162Z,306.46
2019-01-30T05:07:48.186Z,305.75
2019-01-30T05:08:48.138Z,306.07
2019-01-30T05:09:48.124Z,306.54
2019-01-30T05:10:48.129Z,306.28
2019-01-30T05:11:48.117Z,306.10
2019-01-30T05:12:48.099Z,306.06
2019-01-30T05:13:48.107Z,306.06
2019-01-30T05:14:48.094Z,306.22
2019-01-30T05:15:48.092Z,306.63
2019-01-30T05:16:48.051Z,306.05
2019-01-30T05:17:48.051Z,306.03
2019-01-30T05:18:48.026Z,306.34
2019-01-30T05:19:48.019Z,306.05
2019-01-30T05:20:48.040Z,306.32
2019-01-30T05:21:48.013Z,306.52
2019-01-30T05:22:47.986Z,306.71
2019-01-30T05:23:48.952Z,305.57
2019-01-30T05:24:47.968Z,306.45
2019-01-30T05:25:47.982Z,306.80
2019-01-30T05:26:47.948Z,306.58
2019-01-30T05:27:47.944Z,306.11
2019-01-30T05:28:47.930Z,306.63
2019-01-30T05:29:47.917Z,306.36
2019-01-30T05:30:47.931Z,306.63
2019-01-30T05:31:47.897Z,306.42
2019-01-30T05:32:47.899Z,307.10
2019-01-30T05:33:56.476Z,306.33
2019-01-30T05:34:47.874Z,306.27
2019-01-30T05:35:47.863Z,306.41
2019-01-30T05:36:47.837Z,306.69
2019-01-30T05:37:51.113Z,307.12
2019-01-30T05:38:47.825Z,306.99
2019-01-30T05:39:47.809Z,310.02
2019-01-30T05:40:47.822Z,307.85
2019-01-30T05:41:47.801Z,307.43
2019-01-30T05:42:47.786Z,307.75
2019-01-30T05:43:47.770Z,307.45
2019-01-30T05:44:47.765Z,306.90
2019-01-30T05:45:47.766Z,307.04
2019-01-30T05:46:47.746Z,306.91
2019-01-30T05:47:47.725Z,307.54
2019-01-30T05:48:47.735Z,307.29
2019-01-30T05:49:47.704Z,307.13
2019-01-30T05:50:47.708Z,307.09
2019-01-30T05:51:47.717Z,307.44
2019-01-30T05:52:47.691Z,307.05
2019-01-30T05:53:47.677Z,306.97
2019-01-30T05:54:47.673Z,307.20
2019-01-30T05:55:47.658Z,307.53
2019-01-30T05:56:47.631Z,307.30
2019-01-30T05:57:47.634Z,307.61
2019-01-30T05:58:47.621Z,307.78
2019-01-30T05:59:47.607Z,306.93
2019-01-30T06:00:47.609Z,307.12
2019-01-30T06:01:47.588Z,307.01
2019-01-30T06:02:47.584Z,307.34
2019-01-30T06:03:47.583Z,307.07
2019-01-30T06:04:47.568Z,307.45
2019-01-30T06:05:47.576Z,306.67
2019-01-30T06:06:47.539Z,307.23
2019-01-30T06:07:47.522Z,307.04
2019-01-30T06:08:47.537Z,307.59
2019-01-30T06:09:47.509Z,307.09
2019-01-30T06:10:47.516Z,306.94
2019-01-30T06:11:47.505Z,307.32
2019-01-30T06:12:47.509Z,306.77
2019-01-30T06:13:47.473Z,306.87
2019-01-30T06:14:47.502Z,307.31
2019-01-30T06:15:47.476Z,307.12
2019-01-30T06:16:47.441Z,307.36
2019-01-30T06:17:47.435Z,307.53
2019-01-30T06:18:47.460Z,307.64
2019-01-30T06:19:47.408Z,308.00
2019-01-30T06:20:47.455Z,307.75
2019-01-30T06:21:47.381Z,307.55
2019-01-30T06:22:47.373Z,307.66
2019-01-30T06:23:47.382Z,307.87
2019-01-30T06:24:47.359Z,307.16
2019-01-30T06:25:47.343Z,307.29
2019-01-30T06:26:47.355Z,306.74
2019-01-30T06:27:47.328Z,307.39
2019-01-30T06:28:47.324Z,306.77
2019-01-30T06:29:47.299Z,307.37
2019-01-30T06:30:47.286Z,307.14
2019-01-30T06:31:47.301Z,307.42
2019-01-30T06:32:47.262Z,307.90
2019-01-30T06:33:47.250Z,306.26
2019-01-30T06:34:47.246Z,306.54
2019-01-30T06:35:47.237Z,306.94
2019-01-30T06:36:47.248Z,308.09
2019-01-30T06:37:47.221Z,307.49
2019-01-30T06:38:47.209Z,307.57
2019-01-30T06:39:47.193Z,307.42
2019-01-30T06:40:47.179Z,307.74
2019-01-30T06:41:47.195Z,307.62
2019-01-30T06:42:47.714Z,308.03
2019-01-30T06:43:47.155Z,307.29
2019-01-30T06:44:47.149Z,307.67
2019-01-30T06:45:47.136Z,307.84
2019-01-30T06:46:47.142Z,307.58
2019-01-30T06:47:47.113Z,308.09
2019-01-30T06:48:47.106Z,307.35
2019-01-30T06:49:47.093Z,307.16
2019-01-30T06:50:47.095Z,307.14
2019-01-30T06:51:47.083Z,306.78
2019-01-30T06:52:47.067Z,307.35
2019-01-30T06:53:47.051Z,306.88
2019-01-30T06:54:47.052Z,307.35
2019-01-30T06:55:47.019Z,307.58
2019-01-30T06:56:47.030Z,307.54
2019-01-30T06:57:47.011Z,307.53
2019-01-30T06:58:46.997Z,307.28
2019-01-30T06:59:46.995Z,307.93
2019-01-30T07:00:46.977Z,307.74
2019-01-30T07:01:46.996Z,307.75
2019-01-30T07:02:46.966Z,307.67
2019-01-30T07:03:46.941Z,308.31
2019-01-30T07:04:46.942Z,307.74
2019-01-30T07:05:46.927Z,307.76
2019-01-30T07:06:46.937Z,307.39
2019-01-30T07:07:46.921Z,307.92
2019-01-30T07:08:46.892Z,307.88
2019-01-30T07:09:46.880Z,308.08
2019-01-30T07:10:46.874Z,308.12
2019-01-30T07:11:46.878Z,308.36
2019-01-30T07:12:46.874Z,308.10
2019-01-30T07:13:46.847Z,308.58
2019-01-30T07:14:46.833Z,308.08
2019-01-30T07:15:46.828Z,307.89
2019-01-30T07:16:46.830Z,308.41
2019-01-30T07:17:46.807Z,308.29
2019-01-30T07:18:46.797Z,307.18
2019-01-30T07:19:46.772Z,308.63
2019-01-30T07:20:46.777Z,308.43
2019-01-30T07:21:46.768Z,308.12
2019-01-30T07:22:46.757Z,308.44
2019-01-30T07:23:46.732Z,308.50
2019-01-30T07:24:46.734Z,308.25
2019-01-30T07:25:46.723Z,308.38
2019-01-30T07:26:46.741Z,308.09
2019-01-30T07:27:46.688Z,308.49
2019-01-30T07:28:46.694Z,308.14
2019-01-30T07:29:46.679Z,308.21
2019-01-30T07:30:46.667Z,308.07
2019-01-30T07:31:47.467Z,308.32
2019-01-30T07:32:46.664Z,308.68
2019-01-30T07:33:46.639Z,307.64
2019-01-30T07:34:46.633Z,308.08
2019-01-30T07:35:46.623Z,308.70
2019-01-30T07:36:46.619Z,308.43
2019-01-30T07:37:46.595Z,308.17
2019-01-30T07:38:46.584Z,308.29
2019-01-30T07:39:46.582Z,308.44
2019-01-30T07:40:46.573Z,308.31
2019-01-30T07:41:46.574Z,308.79
2019-01-30T07:42:46.556Z,308.37
2019-01-30T07:43:46.533Z,308.59
2019-01-30T07:44:50.853Z,308.25
2019-01-30T07:45:46.507Z,307.73
2019-01-30T07:46:46.525Z,308.96
2019-01-30T07:47:46.488Z,307.88
2019-01-30T07:48:46.485Z,308.55
2019-01-30T07:49:46.486Z,309.65
2019-01-30T07:50:46.469Z,309.24
2019-01-30T07:51:46.467Z,310.28
2019-01-30T07:52:46.438Z,309.19
2019-01-30T07:53:46.429Z,309.95
2019-01-30T07:54:46.417Z,309.45
2019-01-30T07:55:46.408Z,309.24
2019-01-30T07:56:46.429Z,308.52
2019-01-30T07:57:46.406Z,308.76
2019-01-30T07:58:46.378Z,308.78
2019-01-30T07:59:46.362Z,308.59
2019-01-30T08:00:46.373Z,308.98
2019-01-30T08:01:46.392Z,308.85
2019-01-30T08:02:52.937Z,307.74
2019-01-30T08:03:47.320Z,308.02
2019-01-30T08:04:46.310Z,308.45
2019-01-30T08:05:46.303Z,307.95
2019-01-30T08:06:46.300Z,308.22
2019-01-30T08:07:46.313Z,308.05
2019-01-30T08:08:46.263Z,308.26
2019-01-30T08:09:46.266Z,308.35
2019-01-30T08:10:46.253Z,308.15
2019-01-30T08:11:46.249Z,307.55
2019-01-30T08:12:46.225Z,307.75
2019-01-30T08:13:46.228Z,307.32
2019-01-30T08:14:46.199Z,307.05
2019-01-30T08:15:46.195Z,306.18
2019-01-30T08:16:47.910Z,306.78
2019-01-30T08:17:46.185Z,306.93
2019-01-30T08:18:46.181Z,306.41
2019-01-30T08:19:46.172Z,305.63
2019-01-30T08:20:46.150Z,305.79
2019-01-30T08:21:46.167Z,305.76
2019-01-30T08:22:46.122Z,305.31
2019-01-30T08:23:46.344Z,306.23
2019-01-30T08:24:46.536Z,305.88
2019-01-30T08:25:46.121Z,305.78
2019-01-30T08:26:46.173Z,305.02
2019-01-30T08:27:46.084Z,305.09
2019-01-30T08:28:46.347Z,304.59
2019-01-30T08:29:46.385Z,304.61
2019-01-30T08:30:46.055Z,305.23
2019-01-30T08:31:46.508Z,305.47
2019-01-30T08:32:46.117Z,304.90
2019-01-30T08:33:54.076Z,304.52
2019-01-30T08:34:46.503Z,305.02
2019-01-30T08:35:46.078Z,304.43
2019-01-30T08:36:46.001Z,305.60
2019-01-30T08:37:46.139Z,304.95
2019-01-30T08:38:45.974Z,303.91
2019-01-30T08:39:45.942Z,305.19
2019-01-30T08:40:45.952Z,304.48
2019-01-30T08:41:45.940Z,305.12
2019-01-30T08:42:45.952Z,303.92
2019-01-30T08:43:45.938Z,304.23
2019-01-30T08:44:47.085Z,305.03
2019-01-30T08:45:45.891Z,304.60
2019-01-30T08:46:45.929Z,304.59
2019-01-30T08:47:45.881Z,304.32
2019-01-30T08:48:45.917Z,303.69
2019-01-30T08:49:45.859Z,304.30
2019-01-30T08:50:45.834Z,304.40
2019-01-30T08:51:45.830Z,304.59
2019-01-30T08:52:45.835Z,304.40
2019-01-30T08:53:45.812Z,304.79
2019-01-30T08:54:45.816Z,305.85
2019-01-30T08:55:45.844Z,305.47
2019-01-30T08:56:53.088Z,305.64
2019-01-30T08:57:46.800Z,305.54
2019-01-30T08:58:45.748Z,305.03
2019-01-30T08:59:45.763Z,304.62
2019-01-30T09:00:45.744Z,305.75
2019-01-30T09:01:45.732Z,303.87
2019-01-30T09:02:45.754Z,304.64
2019-01-30T09:03:45.735Z,304.16
2019-01-30T09:04:45.703Z,304.53
2019-01-30T09:05:45.737Z,305.11
2019-01-30T09:06:45.745Z,304.60
2019-01-30T09:07:45.691Z,304.87
2019-01-30T09:08:45.643Z,304.49
2019-01-30T09:09:45.644Z,304.84
2019-01-30T09:10:45.630Z,304.47
2019-01-30T09:11:45.626Z,304.27
2019-01-30T09:12:45.647Z,304.25
2019-01-30T09:13:45.593Z,304.57
2019-01-30T09:14:45.606Z,305.01
2019-01-30T09:15:45.576Z,304.75
2019-01-30T09:16:45.575Z,303.85
2019-01-30T09:17:45.561Z,304.29
2019-01-30T09:18:45.535Z,303.41
2019-01-30T09:19:45.544Z,304.68
2019-01-30T09:20:45.524Z,304.08
2019-01-30T09:21:45.538Z,304.51
2019-01-30T09:22:45.540Z,303.80
2019-01-30T09:23:45.485Z,304.64
2019-01-30T09:24:45.488Z,303.16
2019-01-30T09:25:45.489Z,304.30
2019-01-30T09:26:45.484Z,304.23
2019-01-30T09:27:45.471Z,304.56
2019-01-30T09:28:45.439Z,304.84
2019-01-30T09:29:45.435Z,304.67
2019-01-30T09:30:45.429Z,305.29
2019-01-30T09:31:45.411Z,305.11
2019-01-30T09:32:45.428Z,304.83
2019-01-30T09:33:45.427Z,304.46
2019-01-30T09:34:46.036Z,303.69
2019-01-30T09:35:45.370Z,304.22
2019-01-30T09:36:45.393Z,304.94
2019-01-30T09:37:45.440Z,304.94
2019-01-30T09:38:45.394Z,304.77
2019-01-30T09:39:45.321Z,304.89
2019-01-30T09:40:45.309Z,304.77
2019-01-30T09:41:45.296Z,304.55
2019-01-30T09:42:45.724Z,303.13
2019-01-30T09:43:45.292Z,302.91
2019-01-30T09:44:45.274Z,303.53
2019-01-30T09:45:45.285Z,304.12
2019-01-30T09:46:45.258Z,302.50
2019-01-30T09:47:45.251Z,302.63
2019-01-30T09:48:45.232Z,302.59
2019-01-30T09:49:45.231Z,303.58
2019-01-30T09:50:45.216Z,302.40
2019-01-30T09:51:45.212Z,302.93
2019-01-30T09:52:45.218Z,302.48
2019-01-30T09:53:45.194Z,302.82
2019-01-30T09:54:45.178Z,302.30
2019-01-30T09:55:45.154Z,302.25
2019-01-30T09:56:45.269Z,302.81
2019-01-30T09:57:45.160Z,302.73
2019-01-30T09:58:45.127Z,301.90
2019-01-30T09:59:45.123Z,302.96
2019-01-30T10:00:45.110Z,303.43
2019-01-30T10:01:45.096Z,303.39
2019-01-30T10:02:45.119Z,303.38
2019-01-30T10:03:45.088Z,303.78
2019-01-30T10:04:45.061Z,303.92
2019-01-30T10:05:45.038Z,303.70
2019-01-30T10:06:45.032Z,303.16
2019-01-30T10:07:45.115Z,301.85
2019-01-30T10:08:45.020Z,302.80
2019-01-30T10:09:45.009Z,303.16
2019-01-30T10:10:44.990Z,302.58
2019-01-30T10:11:44.988Z,303.35
2019-01-30T10:12:44.989Z,303.30
2019-01-30T10:13:44.974Z,302.33
2019-01-30T10:14:44.953Z,302.69
2019-01-30T10:15:44.930Z,302.68
2019-01-30T10:16:44.924Z,301.65
2019-01-30T10:17:44.967Z,303.06
2019-01-30T10:18:44.904Z,299.69
2019-01-30T10:19:44.901Z,302.09
2019-01-30T10:20:44.880Z,301.29
2019-01-30T10:21:44.887Z,300.33
2019-01-30T10:22:44.895Z,300.93
2019-01-30T10:23:44.852Z,301.08
2019-01-30T10:24:44.869Z,299.93
2019-01-30T10:25:44.838Z,300.90
2019-01-30T10:26:44.825Z,301.20
2019-01-30T10:27:44.902Z,301.03
2019-01-30T10:28:44.831Z,301.16
2019-01-30T10:29:44.816Z,300.69
2019-01-30T10:30:44.782Z,300.81
2019-01-30T10:31:44.781Z,300.14
2019-01-30T10:32:44.803Z,301.46
2019-01-30T10:33:46.649Z,301.04
2019-01-30T10:34:44.744Z,301.16
2019-01-30T10:35:44.742Z,302.55
2019-01-30T10:36:44.714Z,300.98
2019-01-30T10:37:44.712Z,302.07
2019-01-30T10:38:45.070Z,300.72
2019-01-30T10:39:44.686Z,301.97
2019-01-30T10:40:44.667Z,301.49
2019-01-30T10:41:44.665Z,301.34
2019-01-30T10:42:44.659Z,300.67
2019-01-30T10:43:44.644Z,301.78
2019-01-30T10:44:44.661Z,301.50
2019-01-30T10:45:44.630Z,300.83
2019-01-30T10:46:44.620Z,302.48
2019-01-30T10:47:44.592Z,301.46
2019-01-30T10:48:44.595Z,301.58
2019-01-30T10:49:44.580Z,301.48
2019-01-30T10:50:44.558Z,302.02
2019-01-30T10:51:44.555Z,300.96
2019-01-30T10:52:44.550Z,299.81
2019-01-30T10:53:44.551Z,301.11
2019-01-30T10:54:44.519Z,300.80
2019-01-30T10:55:44.506Z,301.23
2019-01-30T10:56:44.522Z,300.60
2019-01-30T10:57:44.485Z,300.41
2019-01-30T10:58:44.514Z,300.67
2019-01-30T10:59:44.458Z,301.45
2019-01-30T11:00:44.460Z,299.41
2019-01-30T11:01:44.444Z,300.58
2019-01-30T11:02:46.426Z,300.02
2019-01-30T11:03:44.498Z,301.40
2019-01-30T11:04:44.436Z,300.86
2019-01-30T11:05:44.570Z,300.46
2019-01-30T11:06:44.399Z,300.45
2019-01-30T11:07:44.390Z,301.27
2019-01-30T11:08:44.430Z,301.25
2019-01-30T11:09:44.381Z,300.17
2019-01-30T11:10:44.358Z,301.95
2019-01-30T11:11:44.339Z,300.35
2019-01-30T11:12:44.348Z,301.37
2019-01-30T11:13:44.364Z,300.50
2019-01-30T11:14:44.328Z,300.21
2019-01-30T11:15:45.051Z,301.74
2019-01-30T11:16:44.288Z,301.62
2019-01-30T11:17:44.274Z,299.31
2019-01-30T11:18:44.285Z,300.06
2019-01-30T11:19:45.479Z,301.04
2019-01-30T11:20:44.270Z,300.47
2019-01-30T11:21:44.254Z,299.48
2019-01-30T11:22:44.219Z,299.60
2019-01-30T11:23:44.225Z,300.22
2019-01-30T11:24:44.211Z,300.60
2019-01-30T11:25:44.222Z,299.79
2019-01-30T11:26:44.198Z,300.58
2019-01-30T11:27:44.163Z,300.15
2019-01-30T11:28:44.169Z,300.27
2019-01-30T11:29:44.167Z,300.32
2019-01-30T11:30:51.404Z,300.43
2019-01-30T11:31:52.668Z,300.63
2019-01-30T11:32:44.119Z,301.24
2019-01-30T11:33:44.119Z,299.82
2019-01-30T11:34:44.117Z,300.01
2019-01-30T11:35:44.177Z,301.05
2019-01-30T11:36:44.088Z,300.31
2019-01-30T11:37:44.067Z,300.13
2019-01-30T11:38:44.069Z,299.90
2019-01-30T11:39:44.064Z,301.45
2019-01-30T11:40:44.024Z,301.88
2019-01-30T11:41:44.024Z,300.94
2019-01-30T11:42:44.044Z,301.65
2019-01-30T11:43:44.021Z,301.88
2019-01-30T11:44:43.984Z,301.50
2019-01-30T11:45:43.990Z,302.18
2019-01-30T11:46:43.961Z,301.61
2019-01-30T11:47:43.975Z,302.11
2019-01-30T11:48:43.982Z,300.88
2019-01-30T11:49:43.943Z,300.72
2019-01-30T11:50:43.943Z,302.01
2019-01-30T11:51:43.957Z,302.25
2019-01-30T11:52:43.908Z,302.35
2019-01-30T11:53:43.909Z,302.13
2019-01-30T11:54:43.898Z,301.79
2019-01-30T11:55:43.881Z,302.35
2019-01-30T11:56:43.870Z,302.15
2019-01-30T11:57:43.865Z,302.25
2019-01-30T11:58:43.876Z,300.96
2019-01-30T11:59:43.824Z,301.62
2019-01-30T12:00:43.828Z,301.62
2019-01-30T12:01:43.812Z,301.75
2019-01-30T12:02:47.804Z,301.44
2019-01-30T12:03:44.579Z,301.87
2019-01-30T12:04:43.774Z,302.32
2019-01-30T12:05:43.775Z,302.43
2019-01-30T12:06:43.767Z,301.08
2019-01-30T12:07:43.765Z,300.62
2019-01-30T12:08:43.820Z,301.66
2019-01-30T12:09:43.784Z,301.66
2019-01-30T12:10:43.723Z,301.58
2019-01-30T12:11:43.705Z,300.95
2019-01-30T12:12:43.709Z,301.66
2019-01-30T12:13:43.695Z,301.10
2019-01-30T12:14:43.696Z,300.95
2019-01-30T12:15:43.690Z,300.23
2019-01-30T12:16:43.658Z,299.47
2019-01-30T12:17:43.652Z,300.22
2019-01-30T12:18:43.668Z,300.74
2019-01-30T12:19:43.637Z,300.85
2019-01-30T12:20:43.611Z,301.28
2019-01-30T12:21:43.611Z,301.55
2019-01-30T12:22:43.600Z,301.15
2019-01-30T12:23:43.593Z,302.48
2019-01-30T12:24:43.568Z,301.53
2019-01-30T12:25:43.571Z,301.48
2019-01-30T12:26:43.554Z,301.37
2019-01-30T12:27:44.101Z,301.12
2019-01-30T12:28:50.593Z,302.39